sensor_id;sensor_type;location;lat;lon;timestamp;temperature;humidity
5118;DHT22;2578;51.622;7.046;2023-11-21T00:01:54;8.10;1.00
5118;DHT22;2578;51.622;7.046;2023-11-21T00:04:20;9.00;1.80
5118;DHT22;2578;51.622;7.046;2023-11-21T00:06:45;8.10;1.00
5118;DHT22;2578;51.622;7.046;2023-11-21T00:09:13;8.00;1.00
5118;DHT22;2578;51.622;7.046;2023-11-21T00:11:41;8.10;12.10
5118;DHT22;2578;51.622;7.046;2023-11-21T00:14:06;8.10;21.20
5118;DHT22;2578;51.622;7.046;2023-11-21T00:16:33;8.10;37.60
5118;DHT22;2578;51.622;7.046;2023-11-21T00:18:59;8.10;46.30
5118;DHT22;2578;51.622;7.046;2023-11-21T00:21:25;8.10;64.60
5118;DHT22;2578;51.622;7.046;2023-11-21T00:23:50;8.10;88.40
5118;DHT22;2578;51.622;7.046;2023-11-21T00:26:16;8.10;99.90
5118;DHT22;2578;51.622;7.046;2023-11-21T00:28:42;8.60;99.90
5118;DHT22;2578;51.622;7.046;2023-11-21T00:31:07;8.00;99.90
5118;DHT22;2578;51.622;7.046;2023-11-21T00:33:33;8.00;99.90
5118;DHT22;2578;51.622;7.046;2023-11-21T00:35:59;8.90;99.90
5118;DHT22;2578;51.622;7.046;2023-11-21T00:38:26;8.00;99.90
5118;DHT22;2578;51.622;7.046;2023-11-21T00:40:52;8.00;99.90
5118;DHT22;2578;51.622;7.046;2023-11-21T00:43:24;7.90;99.90
5118;DHT22;2578;51.622;7.046;2023-11-21T00:45:50;7.90;99.90
5118;DHT22;2578;51.622;7.046;2023-11-21T00:48:16;7.90;99.90
5118;DHT22;2578;51.622;7.046;2023-11-21T00:50:42;9.10;99.90
5118;DHT22;2578;51.622;7.046;2023-11-21T00:53:07;8.00;99.90
5118;DHT22;2578;51.622;7.046;2023-11-21T00:55:33;8.10;99.90
5118;DHT22;2578;51.622;7.046;2023-11-21T00:58:00;7.90;99.90
5118;DHT22;2578;51.622;7.046;2023-11-21T01:00:28;9.10;99.90
5118;DHT22;2578;51.622;7.046;2023-11-21T01:02:54;7.90;99.90
5118;DHT22;2578;51.622;7.046;2023-11-21T01:05:19;8.00;99.90
5118;DHT22;2578;51.622;7.046;2023-11-21T01:07:45;8.10;99.90
5118;DHT22;2578;51.622;7.046;2023-11-21T01:10:11;10.10;92.90
5118;DHT22;2578;51.622;7.046;2023-11-21T01:12:37;8.00;60.00
5118;DHT22;2578;51.622;7.046;2023-11-21T01:15:04;7.90;48.80
5118;DHT22;2578;51.622;7.046;2023-11-21T01:17:33;7.90;41.80
5118;DHT22;2578;51.622;7.046;2023-11-21T01:19:59;7.90;54.10
5118;DHT22;2578;51.622;7.046;2023-11-21T01:22:25;8.00;66.90
5118;DHT22;2578;51.622;7.046;2023-11-21T01:24:54;8.10;90.60
5118;DHT22;2578;51.622;7.046;2023-11-21T01:27:21;8.90;71.60
5118;DHT22;2578;51.622;7.046;2023-11-21T01:29:46;8.80;72.20
5118;DHT22;2578;51.622;7.046;2023-11-21T01:32:12;8.40;45.20
5118;DHT22;2578;51.622;7.046;2023-11-21T01:34:38;8.30;2.30
5118;DHT22;2578;51.622;7.046;2023-11-21T01:37:03;8.00;1.00
5118;DHT22;2578;51.622;7.046;2023-11-21T01:39:30;8.00;1.00
5118;DHT22;2578;51.622;7.046;2023-11-21T01:41:56;8.70;1.00
5118;DHT22;2578;51.622;7.046;2023-11-21T01:44:24;7.80;1.00
5118;DHT22;2578;51.622;7.046;2023-11-21T01:46:50;7.60;1.00
5118;DHT22;2578;51.622;7.046;2023-11-21T01:49:16;7.60;1.00
5118;DHT22;2578;51.622;7.046;2023-11-21T01:51:46;7.60;1.00
5118;DHT22;2578;51.622;7.046;2023-11-21T01:54:12;7.70;1.00
5118;DHT22;2578;51.622;7.046;2023-11-21T01:56:38;7.50;1.00
5118;DHT22;2578;51.622;7.046;2023-11-21T01:59:05;7.50;1.00
5118;DHT22;2578;51.622;7.046;2023-11-21T02:01:33;7.40;1.00
5118;DHT22;2578;51.622;7.046;2023-11-21T02:03:59;7.40;1.00
5118;DHT22;2578;51.622;7.046;2023-11-21T02:06:24;7.30;1.00
5118;DHT22;2578;51.622;7.046;2023-11-21T02:08:51;7.30;1.00
5118;DHT22;2578;51.622;7.046;2023-11-21T02:11:17;7.20;1.00
5118;DHT22;2578;51.622;7.046;2023-11-21T02:13:44;7.30;1.00
5118;DHT22;2578;51.622;7.046;2023-11-21T02:16:11;7.30;1.00
5118;DHT22;2578;51.622;7.046;2023-11-21T02:18:39;7.30;1.00
5118;DHT22;2578;51.622;7.046;2023-11-21T02:21:05;7.20;1.00
5118;DHT22;2578;51.622;7.046;2023-11-21T02:23:30;7.20;1.00
5118;DHT22;2578;51.622;7.046;2023-11-21T02:25:56;7.30;1.00
5118;DHT22;2578;51.622;7.046;2023-11-21T02:28:22;7.00;99.90
5118;DHT22;2578;51.622;7.046;2023-11-21T02:30:52;7.50;99.90
5118;DHT22;2578;51.622;7.046;2023-11-21T02:33:22;6.80;99.90
5118;DHT22;2578;51.622;7.046;2023-11-21T02:35:48;6.50;99.90
5118;DHT22;2578;51.622;7.046;2023-11-21T02:38:13;6.50;99.90
5118;DHT22;2578;51.622;7.046;2023-11-21T02:40:39;7.30;99.90
5118;DHT22;2578;51.622;7.046;2023-11-21T02:43:05;6.30;99.90
5118;DHT22;2578;51.622;7.046;2023-11-21T02:45:31;6.30;99.90
5118;DHT22;2578;51.622;7.046;2023-11-21T02:47:57;6.30;1.00
5118;DHT22;2578;51.622;7.046;2023-11-21T02:50:23;6.30;1.00
5118;DHT22;2578;51.622;7.046;2023-11-21T02:52:49;6.40;1.00
5118;DHT22;2578;51.622;7.046;2023-11-21T02:55:14;7.00;1.00
5118;DHT22;2578;51.622;7.046;2023-11-21T02:57:40;6.50;1.00
5118;DHT22;2578;51.622;7.046;2023-11-21T03:00:06;6.50;1.00
5118;DHT22;2578;51.622;7.046;2023-11-21T03:02:33;6.50;1.00
5118;DHT22;2578;51.622;7.046;2023-11-21T03:05:02;6.60;1.00
5118;DHT22;2578;51.622;7.046;2023-11-21T03:07:27;6.70;1.00
5118;DHT22;2578;51.622;7.046;2023-11-21T03:09:53;6.80;1.00
5118;DHT22;2578;51.622;7.046;2023-11-21T03:12:19;6.90;1.00
5118;DHT22;2578;51.622;7.046;2023-11-21T03:14:45;7.90;1.00
5118;DHT22;2578;51.622;7.046;2023-11-21T03:17:10;6.90;1.00
5118;DHT22;2578;51.622;7.046;2023-11-21T03:19:37;6.90;1.00
5118;DHT22;2578;51.622;7.046;2023-11-21T03:22:03;6.80;1.00
5118;DHT22;2578;51.622;7.046;2023-11-21T03:24:29;6.70;1.00
5118;DHT22;2578;51.622;7.046;2023-11-21T03:26:55;6.60;99.90
5118;DHT22;2578;51.622;7.046;2023-11-21T03:29:21;6.60;99.90
5118;DHT22;2578;51.622;7.046;2023-11-21T03:31:47;6.70;99.90
5118;DHT22;2578;51.622;7.046;2023-11-21T03:34:22;6.60;1.00
5118;DHT22;2578;51.622;7.046;2023-11-21T03:36:48;6.50;1.00
5118;DHT22;2578;51.622;7.046;2023-11-21T03:39:13;6.50;1.00
5118;DHT22;2578;51.622;7.046;2023-11-21T03:41:39;6.50;1.00
5118;DHT22;2578;51.622;7.046;2023-11-21T03:44:05;6.50;1.00
5118;DHT22;2578;51.622;7.046;2023-11-21T03:46:30;6.50;1.00
5118;DHT22;2578;51.622;7.046;2023-11-21T03:48:56;8.30;1.00
5118;DHT22;2578;51.622;7.046;2023-11-21T03:51:21;9.10;1.00
5118;DHT22;2578;51.622;7.046;2023-11-21T03:53:47;6.70;1.00
5118;DHT22;2578;51.622;7.046;2023-11-21T03:56:14;6.80;1.00
5118;DHT22;2578;51.622;7.046;2023-11-21T03:58:39;8.70;1.00
5118;DHT22;2578;51.622;7.046;2023-11-21T04:01:05;6.90;1.00
5118;DHT22;2578;51.622;7.046;2023-11-21T04:03:31;7.10;23.20
5118;DHT22;2578;51.622;7.046;2023-11-21T04:05:56;7.30;26.60
5118;DHT22;2578;51.622;7.046;2023-11-21T04:08:22;7.20;25.30
5118;DHT22;2578;51.622;7.046;2023-11-21T04:10:48;7.30;43.10
5118;DHT22;2578;51.622;7.046;2023-11-21T04:13:14;7.30;46.40
5118;DHT22;2578;51.622;7.046;2023-11-21T04:15:39;7.50;52.30
5118;DHT22;2578;51.622;7.046;2023-11-21T04:18:05;7.40;43.30
5118;DHT22;2578;51.622;7.046;2023-11-21T04:20:31;7.50;57.00
5118;DHT22;2578;51.622;7.046;2023-11-21T04:22:57;7.50;68.60
5118;DHT22;2578;51.622;7.046;2023-11-21T04:25:23;7.80;78.60
5118;DHT22;2578;51.622;7.046;2023-11-21T04:27:49;7.50;69.00
5118;DHT22;2578;51.622;7.046;2023-11-21T04:30:15;7.60;67.80
5118;DHT22;2578;51.622;7.046;2023-11-21T04:32:41;7.50;73.40
5118;DHT22;2578;51.622;7.046;2023-11-21T04:35:07;9.60;76.50
5118;DHT22;2578;51.622;7.046;2023-11-21T04:37:34;7.60;71.80
5118;DHT22;2578;51.622;7.046;2023-11-21T04:39:59;7.70;84.60
5118;DHT22;2578;51.622;7.046;2023-11-21T04:42:25;9.30;83.60
5118;DHT22;2578;51.622;7.046;2023-11-21T04:44:51;7.90;81.40
5118;DHT22;2578;51.622;7.046;2023-11-21T04:47:18;7.90;30.70
5118;DHT22;2578;51.622;7.046;2023-11-21T04:49:46;7.90;22.80
5118;DHT22;2578;51.622;7.046;2023-11-21T04:52:14;7.80;5.40
5118;DHT22;2578;51.622;7.046;2023-11-21T04:54:40;7.60;1.00
5118;DHT22;2578;51.622;7.046;2023-11-21T04:57:06;7.70;1.00
5118;DHT22;2578;51.622;7.046;2023-11-21T04:59:33;7.70;1.00
5118;DHT22;2578;51.622;7.046;2023-11-21T05:01:59;9.70;1.00
5118;DHT22;2578;51.622;7.046;2023-11-21T05:04:25;7.70;1.00
5118;DHT22;2578;51.622;7.046;2023-11-21T05:06:51;7.80;1.00
5118;DHT22;2578;51.622;7.046;2023-11-21T05:09:17;7.80;1.00
5118;DHT22;2578;51.622;7.046;2023-11-21T05:11:43;7.80;1.00
5118;DHT22;2578;51.622;7.046;2023-11-21T05:14:08;8.10;1.00
5118;DHT22;2578;51.622;7.046;2023-11-21T05:16:34;7.70;1.00
5118;DHT22;2578;51.622;7.046;2023-11-21T05:19:00;7.70;1.00
5118;DHT22;2578;51.622;7.046;2023-11-21T05:21:27;7.60;1.00
5118;DHT22;2578;51.622;7.046;2023-11-21T05:23:53;7.60;1.00
5118;DHT22;2578;51.622;7.046;2023-11-21T05:26:19;7.60;1.00
5118;DHT22;2578;51.622;7.046;2023-11-21T05:28:44;7.60;1.00
5118;DHT22;2578;51.622;7.046;2023-11-21T05:31:10;7.60;1.00
5118;DHT22;2578;51.622;7.046;2023-11-21T05:33:36;7.60;1.00
5118;DHT22;2578;51.622;7.046;2023-11-21T05:36:02;7.40;1.00
5118;DHT22;2578;51.622;7.046;2023-11-21T05:38:28;7.30;1.00
5118;DHT22;2578;51.622;7.046;2023-11-21T05:40:53;7.40;1.00
5118;DHT22;2578;51.622;7.046;2023-11-21T05:43:19;7.50;1.00
5118;DHT22;2578;51.622;7.046;2023-11-21T05:45:45;7.50;1.00
5118;DHT22;2578;51.622;7.046;2023-11-21T05:48:10;7.50;1.00
5118;DHT22;2578;51.622;7.046;2023-11-21T05:50:36;7.40;1.00
5118;DHT22;2578;51.622;7.046;2023-11-21T05:53:03;7.70;1.00
5118;DHT22;2578;51.622;7.046;2023-11-21T05:55:29;7.20;1.00
5118;DHT22;2578;51.622;7.046;2023-11-21T05:57:54;7.20;1.00
5118;DHT22;2578;51.622;7.046;2023-11-21T06:00:20;7.50;1.00
5118;DHT22;2578;51.622;7.046;2023-11-21T06:02:51;7.30;1.00
5118;DHT22;2578;51.622;7.046;2023-11-21T06:05:18;7.50;1.00
5118;DHT22;2578;51.622;7.046;2023-11-21T06:07:44;7.10;1.00
5118;DHT22;2578;51.622;7.046;2023-11-21T06:10:11;6.90;1.00
5118;DHT22;2578;51.622;7.046;2023-11-21T06:12:38;7.00;1.00
5118;DHT22;2578;51.622;7.046;2023-11-21T06:15:06;7.20;1.00
5118;DHT22;2578;51.622;7.046;2023-11-21T06:17:37;7.00;1.00
5118;DHT22;2578;51.622;7.046;2023-11-21T06:20:03;7.00;1.00
5118;DHT22;2578;51.622;7.046;2023-11-21T06:22:38;6.90;1.00
5118;DHT22;2578;51.622;7.046;2023-11-21T06:25:04;6.70;1.00
5118;DHT22;2578;51.622;7.046;2023-11-21T06:27:41;6.60;1.00
5118;DHT22;2578;51.622;7.046;2023-11-21T06:30:07;6.60;1.00
5118;DHT22;2578;51.622;7.046;2023-11-21T06:32:35;6.60;1.00
5118;DHT22;2578;51.622;7.046;2023-11-21T06:35:04;6.60;1.00
5118;DHT22;2578;51.622;7.046;2023-11-21T06:37:31;6.60;1.00
5118;DHT22;2578;51.622;7.046;2023-11-21T06:39:58;6.50;1.00
5118;DHT22;2578;51.622;7.046;2023-11-21T06:42:27;6.50;1.00
5118;DHT22;2578;51.622;7.046;2023-11-21T06:44:54;6.60;1.00
5118;DHT22;2578;51.622;7.046;2023-11-21T06:47:25;6.80;56.80
5118;DHT22;2578;51.622;7.046;2023-11-21T06:49:51;6.80;91.90
5118;DHT22;2578;51.622;7.046;2023-11-21T06:52:18;6.90;99.90
5118;DHT22;2578;51.622;7.046;2023-11-21T06:54:44;6.90;99.90
5118;DHT22;2578;51.622;7.046;2023-11-21T06:57:11;7.00;99.90
5118;DHT22;2578;51.622;7.046;2023-11-21T06:59:37;7.00;99.90
5118;DHT22;2578;51.622;7.046;2023-11-21T07:02:03;7.00;99.90
5118;DHT22;2578;51.622;7.046;2023-11-21T07:04:30;7.00;99.90
5118;DHT22;2578;51.622;7.046;2023-11-21T07:06:55;7.10;99.90
5118;DHT22;2578;51.622;7.046;2023-11-21T07:09:21;7.10;99.90
5118;DHT22;2578;51.622;7.046;2023-11-21T07:11:50;7.10;99.90
5118;DHT22;2578;51.622;7.046;2023-11-21T07:14:16;7.10;99.90
5118;DHT22;2578;51.622;7.046;2023-11-21T07:16:42;7.20;99.90
5118;DHT22;2578;51.622;7.046;2023-11-21T07:19:08;7.20;99.90
5118;DHT22;2578;51.622;7.046;2023-11-21T07:21:34;7.30;99.90
5118;DHT22;2578;51.622;7.046;2023-11-21T07:24:04;7.30;99.90
5118;DHT22;2578;51.622;7.046;2023-11-21T07:26:32;7.30;99.90
5118;DHT22;2578;51.622;7.046;2023-11-21T07:28:58;7.30;99.90
5118;DHT22;2578;51.622;7.046;2023-11-21T07:31:24;7.30;99.90
5118;DHT22;2578;51.622;7.046;2023-11-21T07:33:50;7.20;99.90
5118;DHT22;2578;51.622;7.046;2023-11-21T07:36:17;7.10;99.90
5118;DHT22;2578;51.622;7.046;2023-11-21T07:38:49;7.10;99.90
5118;DHT22;2578;51.622;7.046;2023-11-21T07:41:15;7.10;99.90
5118;DHT22;2578;51.622;7.046;2023-11-21T07:43:42;7.10;99.90
5118;DHT22;2578;51.622;7.046;2023-11-21T07:46:07;7.10;99.90
5118;DHT22;2578;51.622;7.046;2023-11-21T07:48:34;7.10;99.90
5118;DHT22;2578;51.622;7.046;2023-11-21T07:51:01;8.00;99.90
5118;DHT22;2578;51.622;7.046;2023-11-21T07:53:27;7.20;99.90
5118;DHT22;2578;51.622;7.046;2023-11-21T07:55:58;7.30;99.90
5118;DHT22;2578;51.622;7.046;2023-11-21T07:58:24;7.30;99.90
5118;DHT22;2578;51.622;7.046;2023-11-21T08:00:50;7.40;99.90
5118;DHT22;2578;51.622;7.046;2023-11-21T08:03:16;7.40;99.90
5118;DHT22;2578;51.622;7.046;2023-11-21T08:05:42;7.50;99.90
5118;DHT22;2578;51.622;7.046;2023-11-21T08:08:08;7.50;99.90
5118;DHT22;2578;51.622;7.046;2023-11-21T08:10:34;7.50;99.90
5118;DHT22;2578;51.622;7.046;2023-11-21T08:13:01;7.60;99.90
5118;DHT22;2578;51.622;7.046;2023-11-21T08:15:27;7.60;99.90
5118;DHT22;2578;51.622;7.046;2023-11-21T08:17:52;7.60;99.90
5118;DHT22;2578;51.622;7.046;2023-11-21T08:20:18;7.50;99.90
5118;DHT22;2578;51.622;7.046;2023-11-21T08:22:44;7.50;1.00
5118;DHT22;2578;51.622;7.046;2023-11-21T08:25:10;7.50;1.00
5118;DHT22;2578;51.622;7.046;2023-11-21T08:27:36;7.50;1.00
5118;DHT22;2578;51.622;7.046;2023-11-21T08:30:03;7.50;1.00
5118;DHT22;2578;51.622;7.046;2023-11-21T08:32:29;7.40;1.00
5118;DHT22;2578;51.622;7.046;2023-11-21T08:34:57;7.50;1.00
5118;DHT22;2578;51.622;7.046;2023-11-21T08:37:23;7.50;1.00
5118;DHT22;2578;51.622;7.046;2023-11-21T08:39:49;7.60;1.00
5118;DHT22;2578;51.622;7.046;2023-11-21T08:42:15;7.60;1.00
5118;DHT22;2578;51.622;7.046;2023-11-21T08:44:41;7.70;1.00
5118;DHT22;2578;51.622;7.046;2023-11-21T08:47:07;7.80;1.00
5118;DHT22;2578;51.622;7.046;2023-11-21T08:49:33;7.80;1.00
5118;DHT22;2578;51.622;7.046;2023-11-21T08:51:58;7.80;1.00
5118;DHT22;2578;51.622;7.046;2023-11-21T08:54:25;7.80;1.00
5118;DHT22;2578;51.622;7.046;2023-11-21T08:56:54;7.80;1.00
5118;DHT22;2578;51.622;7.046;2023-11-21T08:59:20;7.80;1.00
5118;DHT22;2578;51.622;7.046;2023-11-21T09:01:47;7.90;1.00
5118;DHT22;2578;51.622;7.046;2023-11-21T09:04:12;8.00;1.00
5118;DHT22;2578;51.622;7.046;2023-11-21T09:06:39;8.00;1.00
5118;DHT22;2578;51.622;7.046;2023-11-21T09:09:05;8.00;1.00
5118;DHT22;2578;51.622;7.046;2023-11-21T09:11:32;8.00;1.00
5118;DHT22;2578;51.622;7.046;2023-11-21T09:13:59;7.90;1.00
5118;DHT22;2578;51.622;7.046;2023-11-21T09:16:25;7.90;1.00
5118;DHT22;2578;51.622;7.046;2023-11-21T09:18:51;7.90;1.00
5118;DHT22;2578;51.622;7.046;2023-11-21T09:21:16;8.00;1.00
5118;DHT22;2578;51.622;7.046;2023-11-21T09:23:44;8.10;1.00
5118;DHT22;2578;51.622;7.046;2023-11-21T09:26:10;8.10;1.00
5118;DHT22;2578;51.622;7.046;2023-11-21T09:28:35;8.90;1.00
5118;DHT22;2578;51.622;7.046;2023-11-21T09:31:06;8.20;1.00
5118;DHT22;2578;51.622;7.046;2023-11-21T09:33:34;8.30;1.00
5118;DHT22;2578;51.622;7.046;2023-11-21T09:35:59;8.30;1.00
5118;DHT22;2578;51.622;7.046;2023-11-21T09:38:25;8.20;1.00
5118;DHT22;2578;51.622;7.046;2023-11-21T09:40:51;8.30;1.00
5118;DHT22;2578;51.622;7.046;2023-11-21T09:43:18;8.30;1.00
5118;DHT22;2578;51.622;7.046;2023-11-21T09:45:48;8.30;1.00
5118;DHT22;2578;51.622;7.046;2023-11-21T09:48:17;8.40;1.00
5118;DHT22;2578;51.622;7.046;2023-11-21T09:50:43;8.30;1.00
5118;DHT22;2578;51.622;7.046;2023-11-21T09:53:20;8.30;1.00
5118;DHT22;2578;51.622;7.046;2023-11-21T09:55:53;8.30;1.00
5118;DHT22;2578;51.622;7.046;2023-11-21T09:58:20;8.20;1.00
5118;DHT22;2578;51.622;7.046;2023-11-21T10:00:48;8.30;1.00
5118;DHT22;2578;51.622;7.046;2023-11-21T10:03:15;8.30;1.00
5118;DHT22;2578;51.622;7.046;2023-11-21T10:05:45;8.20;1.00
5118;DHT22;2578;51.622;7.046;2023-11-21T10:08:11;8.20;1.00
5118;DHT22;2578;51.622;7.046;2023-11-21T10:10:38;8.10;1.00
5118;DHT22;2578;51.622;7.046;2023-11-21T10:13:11;8.10;1.00
5118;DHT22;2578;51.622;7.046;2023-11-21T10:15:38;8.30;1.00
5118;DHT22;2578;51.622;7.046;2023-11-21T10:18:04;8.30;1.00
5118;DHT22;2578;51.622;7.046;2023-11-21T10:20:34;8.30;1.00
5118;DHT22;2578;51.622;7.046;2023-11-21T10:23:00;8.40;10.10
5118;DHT22;2578;51.622;7.046;2023-11-21T10:25:30;8.40;1.00
5118;DHT22;2578;51.622;7.046;2023-11-21T10:28:01;8.40;6.00
5118;DHT22;2578;51.622;7.046;2023-11-21T10:30:37;8.50;24.60
5118;DHT22;2578;51.622;7.046;2023-11-21T10:33:07;8.50;34.20
5118;DHT22;2578;51.622;7.046;2023-11-21T10:35:48;8.50;15.10
5118;DHT22;2578;51.622;7.046;2023-11-21T10:38:23;8.60;14.80
5118;DHT22;2578;51.622;7.046;2023-11-21T10:40:50;8.60;1.00
5118;DHT22;2578;51.622;7.046;2023-11-21T10:43:16;8.50;1.00
5118;DHT22;2578;51.622;7.046;2023-11-21T10:45:42;8.50;1.00
5118;DHT22;2578;51.622;7.046;2023-11-21T10:48:15;8.50;1.00
5118;DHT22;2578;51.622;7.046;2023-11-21T10:50:41;8.70;41.70
5118;DHT22;2578;51.622;7.046;2023-11-21T10:53:07;8.70;56.90
5118;DHT22;2578;51.622;7.046;2023-11-21T10:55:34;8.70;1.00
5118;DHT22;2578;51.622;7.046;2023-11-21T10:58:01;8.70;12.80
5118;DHT22;2578;51.622;7.046;2023-11-21T11:00:29;8.60;35.90
5118;DHT22;2578;51.622;7.046;2023-11-21T11:02:55;8.60;1.00
5118;DHT22;2578;51.622;7.046;2023-11-21T11:05:22;8.70;19.00
5118;DHT22;2578;51.622;7.046;2023-11-21T11:07:56;8.80;68.80
5118;DHT22;2578;51.622;7.046;2023-11-21T11:10:26;8.90;39.00
5118;DHT22;2578;51.622;7.046;2023-11-21T11:12:55;8.70;7.60
5118;DHT22;2578;51.622;7.046;2023-11-21T11:15:23;8.70;1.00
5118;DHT22;2578;51.622;7.046;2023-11-21T11:17:49;8.80;1.00
5118;DHT22;2578;51.622;7.046;2023-11-21T11:20:16;8.80;1.00
5118;DHT22;2578;51.622;7.046;2023-11-21T11:33:41;8.90;1.00
5118;DHT22;2578;51.622;7.046;2023-11-21T11:36:27;8.90;1.00
5118;DHT22;2578;51.622;7.046;2023-11-21T11:38:56;8.90;1.00
5118;DHT22;2578;51.622;7.046;2023-11-21T11:41:31;8.80;1.00
5118;DHT22;2578;51.622;7.046;2023-11-21T11:44:00;8.90;1.00
5118;DHT22;2578;51.622;7.046;2023-11-21T11:46:44;8.90;1.00
5118;DHT22;2578;51.622;7.046;2023-11-21T11:49:27;8.90;1.00
5118;DHT22;2578;51.622;7.046;2023-11-21T11:54:56;8.90;1.00
5118;DHT22;2578;51.622;7.046;2023-11-21T11:57:24;9.00;1.00
5118;DHT22;2578;51.622;7.046;2023-11-21T12:02:41;9.10;1.00
5118;DHT22;2578;51.622;7.046;2023-11-21T12:05:12;9.10;1.00
5118;DHT22;2578;51.622;7.046;2023-11-21T12:07:52;9.10;99.90
5118;DHT22;2578;51.622;7.046;2023-11-21T12:10:25;9.10;1.00
5118;DHT22;2578;51.622;7.046;2023-11-21T12:12:55;9.20;1.00
5118;DHT22;2578;51.622;7.046;2023-11-21T12:15:22;9.20;99.90
5118;DHT22;2578;51.622;7.046;2023-11-21T12:17:48;9.40;1.00
5118;DHT22;2578;51.622;7.046;2023-11-21T12:20:16;9.40;99.90
5118;DHT22;2578;51.622;7.046;2023-11-21T12:22:44;9.60;99.90
5118;DHT22;2578;51.622;7.046;2023-11-21T12:27:45;9.50;99.90
5118;DHT22;2578;51.622;7.046;2023-11-21T12:30:12;9.40;99.90
5118;DHT22;2578;51.622;7.046;2023-11-21T12:32:48;9.50;99.90
5118;DHT22;2578;51.622;7.046;2023-11-21T12:35:14;9.60;99.90
5118;DHT22;2578;51.622;7.046;2023-11-21T12:37:41;9.60;99.90
5118;DHT22;2578;51.622;7.046;2023-11-21T12:40:09;9.60;99.90
5118;DHT22;2578;51.622;7.046;2023-11-21T12:42:47;9.60;99.90
5118;DHT22;2578;51.622;7.046;2023-11-21T12:47:50;9.60;99.90
5118;DHT22;2578;51.622;7.046;2023-11-21T12:50:20;9.60;99.90
5118;DHT22;2578;51.622;7.046;2023-11-21T12:52:50;9.60;99.90
5118;DHT22;2578;51.622;7.046;2023-11-21T12:55:20;9.50;99.90
5118;DHT22;2578;51.622;7.046;2023-11-21T12:58:01;9.50;99.90
5118;DHT22;2578;51.622;7.046;2023-11-21T13:00:46;9.60;99.90
5118;DHT22;2578;51.622;7.046;2023-11-21T13:03:13;9.50;99.90
5118;DHT22;2578;51.622;7.046;2023-11-21T13:05:43;10.00;99.90
5118;DHT22;2578;51.622;7.046;2023-11-21T13:08:11;9.40;99.90
5118;DHT22;2578;51.622;7.046;2023-11-21T13:13:07;9.40;99.90
5118;DHT22;2578;51.622;7.046;2023-11-21T13:15:54;10.50;99.90
5118;DHT22;2578;51.622;7.046;2023-11-21T13:18:24;9.40;99.90
5118;DHT22;2578;51.622;7.046;2023-11-21T13:20:53;9.40;99.90
5118;DHT22;2578;51.622;7.046;2023-11-21T13:23:20;11.00;99.90
5118;DHT22;2578;51.622;7.046;2023-11-21T13:25:46;9.50;99.90
5118;DHT22;2578;51.622;7.046;2023-11-21T13:28:13;9.60;99.90
5118;DHT22;2578;51.622;7.046;2023-11-21T13:30:41;9.60;99.90
5118;DHT22;2578;51.622;7.046;2023-11-21T13:33:07;9.60;99.90
5118;DHT22;2578;51.622;7.046;2023-11-21T13:35:35;9.80;99.90
5118;DHT22;2578;51.622;7.046;2023-11-21T13:38:10;9.80;99.90
5118;DHT22;2578;51.622;7.046;2023-11-21T13:40:37;10.70;99.90
5118;DHT22;2578;51.622;7.046;2023-11-21T13:43:08;9.90;93.90
5118;DHT22;2578;51.622;7.046;2023-11-21T13:45:38;9.90;18.40
5118;DHT22;2578;51.622;7.046;2023-11-21T13:48:08;9.90;1.00
5118;DHT22;2578;51.622;7.046;2023-11-21T13:50:39;11.70;1.00
5118;DHT22;2578;51.622;7.046;2023-11-21T13:53:10;9.80;1.00
5118;DHT22;2578;51.622;7.046;2023-11-21T13:55:48;9.80;1.00
5118;DHT22;2578;51.622;7.046;2023-11-21T13:58:15;9.60;99.90
5118;DHT22;2578;51.622;7.046;2023-11-21T14:00:48;10.00;99.90
5118;DHT22;2578;51.622;7.046;2023-11-21T14:03:22;10.10;99.90
5118;DHT22;2578;51.622;7.046;2023-11-21T14:05:50;9.60;99.90
5118;DHT22;2578;51.622;7.046;2023-11-21T14:08:22;9.60;99.90
5118;DHT22;2578;51.622;7.046;2023-11-21T14:10:57;11.00;99.90
5118;DHT22;2578;51.622;7.046;2023-11-21T14:13:25;9.60;99.90
5118;DHT22;2578;51.622;7.046;2023-11-21T14:15:51;9.70;99.90
5118;DHT22;2578;51.622;7.046;2023-11-21T14:18:26;9.70;99.90
5118;DHT22;2578;51.622;7.046;2023-11-21T14:21:16;9.70;99.90
5118;DHT22;2578;51.622;7.046;2023-11-21T14:23:42;9.60;99.90
5118;DHT22;2578;51.622;7.046;2023-11-21T14:26:08;9.70;99.90
5118;DHT22;2578;51.622;7.046;2023-11-21T14:28:34;10.00;99.90
5118;DHT22;2578;51.622;7.046;2023-11-21T14:31:01;9.70;99.90
5118;DHT22;2578;51.622;7.046;2023-11-21T14:33:28;9.80;99.90
5118;DHT22;2578;51.622;7.046;2023-11-21T14:35:54;9.80;99.90
5118;DHT22;2578;51.622;7.046;2023-11-21T14:38:19;9.60;99.90
5118;DHT22;2578;51.622;7.046;2023-11-21T14:40:45;9.60;99.90
5118;DHT22;2578;51.622;7.046;2023-11-21T14:43:11;9.60;99.90
5118;DHT22;2578;51.622;7.046;2023-11-21T14:45:38;9.50;99.90
5118;DHT22;2578;51.622;7.046;2023-11-21T14:48:04;9.40;99.90
5118;DHT22;2578;51.622;7.046;2023-11-21T14:50:30;9.30;99.90
5118;DHT22;2578;51.622;7.046;2023-11-21T14:53:12;9.20;99.90
5118;DHT22;2578;51.622;7.046;2023-11-21T14:55:40;9.20;99.90
5118;DHT22;2578;51.622;7.046;2023-11-21T14:58:15;9.10;99.90
5118;DHT22;2578;51.622;7.046;2023-11-21T15:00:48;9.10;99.90
5118;DHT22;2578;51.622;7.046;2023-11-21T15:03:16;9.10;99.90
5118;DHT22;2578;51.622;7.046;2023-11-21T15:05:58;9.10;99.90
5118;DHT22;2578;51.622;7.046;2023-11-21T15:08:25;9.00;99.90
5118;DHT22;2578;51.622;7.046;2023-11-21T15:10:55;9.10;99.90
5118;DHT22;2578;51.622;7.046;2023-11-21T15:13:22;9.10;99.90
5118;DHT22;2578;51.622;7.046;2023-11-21T15:15:48;9.20;99.90
5118;DHT22;2578;51.622;7.046;2023-11-21T15:18:14;9.20;99.90
5118;DHT22;2578;51.622;7.046;2023-11-21T15:20:40;9.20;99.90
5118;DHT22;2578;51.622;7.046;2023-11-21T15:23:07;9.00;99.90
5118;DHT22;2578;51.622;7.046;2023-11-21T15:25:32;9.00;99.90
5118;DHT22;2578;51.622;7.046;2023-11-21T15:27:59;8.90;99.90
5118;DHT22;2578;51.622;7.046;2023-11-21T15:30:25;9.10;99.90
5118;DHT22;2578;51.622;7.046;2023-11-21T15:32:51;8.80;99.90
5118;DHT22;2578;51.622;7.046;2023-11-21T15:35:18;9.10;99.90
5118;DHT22;2578;51.622;7.046;2023-11-21T15:37:44;8.70;99.90
5118;DHT22;2578;51.622;7.046;2023-11-21T15:40:11;8.70;99.90
5118;DHT22;2578;51.622;7.046;2023-11-21T15:42:38;8.70;99.90
5118;DHT22;2578;51.622;7.046;2023-11-21T15:45:04;8.70;99.90
5118;DHT22;2578;51.622;7.046;2023-11-21T15:47:32;8.60;85.00
5118;DHT22;2578;51.622;7.046;2023-11-21T15:49:58;8.50;93.60
5118;DHT22;2578;51.622;7.046;2023-11-21T15:52:24;8.50;98.30
5118;DHT22;2578;51.622;7.046;2023-11-21T15:54:49;8.30;96.70
5118;DHT22;2578;51.622;7.046;2023-11-21T15:57:15;8.20;93.10
5118;DHT22;2578;51.622;7.046;2023-11-21T15:59:43;9.00;93.50
5118;DHT22;2578;51.622;7.046;2023-11-21T16:02:10;8.00;99.90
5118;DHT22;2578;51.622;7.046;2023-11-21T16:04:37;8.00;99.80
5118;DHT22;2578;51.622;7.046;2023-11-21T16:07:04;7.90;99.40
5118;DHT22;2578;51.622;7.046;2023-11-21T16:09:32;8.00;99.90
5118;DHT22;2578;51.622;7.046;2023-11-21T16:12:01;7.90;87.60
5118;DHT22;2578;51.622;7.046;2023-11-21T16:14:34;7.70;41.20
5118;DHT22;2578;51.622;7.046;2023-11-21T16:17:13;7.70;21.90
5118;DHT22;2578;51.622;7.046;2023-11-21T16:19:46;7.60;20.70
5118;DHT22;2578;51.622;7.046;2023-11-21T16:22:13;7.60;12.50
5118;DHT22;2578;51.622;7.046;2023-11-21T16:24:38;7.60;14.20
5118;DHT22;2578;51.622;7.046;2023-11-21T16:27:04;7.60;9.60
5118;DHT22;2578;51.622;7.046;2023-11-21T16:29:31;7.60;14.90
5118;DHT22;2578;51.622;7.046;2023-11-21T16:31:58;9.60;11.40
5118;DHT22;2578;51.622;7.046;2023-11-21T16:34:26;9.40;8.70
5118;DHT22;2578;51.622;7.046;2023-11-21T16:36:52;7.60;1.00
5118;DHT22;2578;51.622;7.046;2023-11-21T16:39:19;7.60;1.00
5118;DHT22;2578;51.622;7.046;2023-11-21T16:41:47;7.60;1.00
5118;DHT22;2578;51.622;7.046;2023-11-21T16:44:20;7.60;1.00
5118;DHT22;2578;51.622;7.046;2023-11-21T16:46:47;7.60;1.00
5118;DHT22;2578;51.622;7.046;2023-11-21T16:49:15;7.60;1.00
5118;DHT22;2578;51.622;7.046;2023-11-21T16:51:42;9.40;1.00